Devon, Kentucky
Current Conditions -  °F | °C
As of 9:52 PM on Friday 19 Dec 2014 (Local Time) from KCVG Reporting Station
Overcast Overcast  
Wind Chill: 23°   Ceiling: 2300
Heat Index: 30°   Visibility: 10mi
Dew Point: 20°   Wind: 7mph
Humidity: 66%   Direction: 70°ENE
Pressure: 30.25"   Gusts: NA
Location:  38.997°N, 84.6517°W
Report Text: KCVG 200252Z 07006KT 10SM OVC023 M01/M07 A3025 RMK AO2 SLP251 T10111067 58010
Loading
Personal Weather Stations






























Interactive Weather Map New forecast layout! Learn more

10-Day Weather Forecast

Advertisements
Track Severe Weather on mobile